sensor_id;sensor_type;location;lat;lon;timestamp;temperature;humidity
19220;DHT22;9744;49.364;7.484;2023-04-24T00:00:33;9.00;99.90
19220;DHT22;9744;49.364;7.484;2023-04-24T00:03:27;9.00;99.90
19220;DHT22;9744;49.364;7.484;2023-04-24T00:05:55;9.00;99.90
19220;DHT22;9744;49.364;7.484;2023-04-24T00:08:22;9.00;99.90
19220;DHT22;9744;49.364;7.484;2023-04-24T00:10:50;9.10;99.90
19220;DHT22;9744;49.364;7.484;2023-04-24T00:13:19;9.10;99.90
19220;DHT22;9744;49.364;7.484;2023-04-24T00:15:47;9.10;99.90
19220;DHT22;9744;49.364;7.484;2023-04-24T00:18:14;9.10;99.90
19220;DHT22;9744;49.364;7.484;2023-04-24T00:20:41;9.00;99.90
19220;DHT22;9744;49.364;7.484;2023-04-24T00:23:09;9.10;99.90
19220;DHT22;9744;49.364;7.484;2023-04-24T00:25:36;9.00;99.90
19220;DHT22;9744;49.364;7.484;2023-04-24T00:28:04;9.00;99.90
19220;DHT22;9744;49.364;7.484;2023-04-24T00:30:32;9.00;99.90
19220;DHT22;9744;49.364;7.484;2023-04-24T00:33:00;9.10;99.90
19220;DHT22;9744;49.364;7.484;2023-04-24T00:35:27;9.10;99.90
19220;DHT22;9744;49.364;7.484;2023-04-24T00:37:54;9.10;99.90
19220;DHT22;9744;49.364;7.484;2023-04-24T00:40:22;9.10;99.90
19220;DHT22;9744;49.364;7.484;2023-04-24T00:42:49;9.10;99.90
19220;DHT22;9744;49.364;7.484;2023-04-24T00:45:17;9.10;99.90
19220;DHT22;9744;49.364;7.484;2023-04-24T00:47:48;9.10;99.90
19220;DHT22;9744;49.364;7.484;2023-04-24T00:50:16;9.10;99.90
19220;DHT22;9744;49.364;7.484;2023-04-24T00:52:43;9.10;99.90
19220;DHT22;9744;49.364;7.484;2023-04-24T00:55:11;9.10;99.90
19220;DHT22;9744;49.364;7.484;2023-04-24T00:57:38;9.10;99.90
19220;DHT22;9744;49.364;7.484;2023-04-24T01:00:13;9.10;99.90
19220;DHT22;9744;49.364;7.484;2023-04-24T01:02:44;9.10;99.90
19220;DHT22;9744;49.364;7.484;2023-04-24T01:05:14;9.00;99.90
19220;DHT22;9744;49.364;7.484;2023-04-24T01:07:44;9.10;99.90
19220;DHT22;9744;49.364;7.484;2023-04-24T01:10:14;9.20;99.90
19220;DHT22;9744;49.364;7.484;2023-04-24T01:12:45;9.10;99.90
19220;DHT22;9744;49.364;7.484;2023-04-24T01:15:12;8.80;99.90
19220;DHT22;9744;49.364;7.484;2023-04-24T01:17:41;8.70;99.90
19220;DHT22;9744;49.364;7.484;2023-04-24T01:20:09;8.60;99.90
19220;DHT22;9744;49.364;7.484;2023-04-24T01:22:39;8.40;99.90
19220;DHT22;9744;49.364;7.484;2023-04-24T01:25:07;8.30;99.90
19220;DHT22;9744;49.364;7.484;2023-04-24T01:27:35;8.10;99.90
19220;DHT22;9744;49.364;7.484;2023-04-24T01:30:02;8.10;99.90
19220;DHT22;9744;49.364;7.484;2023-04-24T01:32:33;8.10;99.90
19220;DHT22;9744;49.364;7.484;2023-04-24T01:35:02;8.00;99.90
19220;DHT22;9744;49.364;7.484;2023-04-24T01:37:46;7.90;99.90
19220;DHT22;9744;49.364;7.484;2023-04-24T01:40:14;7.90;99.90
19220;DHT22;9744;49.364;7.484;2023-04-24T01:42:45;7.90;99.90
19220;DHT22;9744;49.364;7.484;2023-04-24T01:45:17;7.80;99.90
19220;DHT22;9744;49.364;7.484;2023-04-24T01:47:45;7.80;99.90
19220;DHT22;9744;49.364;7.484;2023-04-24T01:50:17;7.80;99.90
19220;DHT22;9744;49.364;7.484;2023-04-24T01:52:48;7.70;99.90
19220;DHT22;9744;49.364;7.484;2023-04-24T01:55:16;7.70;99.90
19220;DHT22;9744;49.364;7.484;2023-04-24T01:57:47;7.70;99.90
19220;DHT22;9744;49.364;7.484;2023-04-24T02:00:46;7.80;99.90
19220;DHT22;9744;49.364;7.484;2023-04-24T02:03:16;7.70;99.90
19220;DHT22;9744;49.364;7.484;2023-04-24T02:05:45;7.60;99.90
19220;DHT22;9744;49.364;7.484;2023-04-24T02:08:16;7.60;99.90
19220;DHT22;9744;49.364;7.484;2023-04-24T02:10:46;7.60;99.90
19220;DHT22;9744;49.364;7.484;2023-04-24T02:13:15;7.60;99.90
19220;DHT22;9744;49.364;7.484;2023-04-24T02:15:54;7.60;99.90
19220;DHT22;9744;49.364;7.484;2023-04-24T02:18:29;7.60;99.90
19220;DHT22;9744;49.364;7.484;2023-04-24T02:25:07;7.60;99.90
19220;DHT22;9744;49.364;7.484;2023-04-24T02:27:38;7.60;99.90
19220;DHT22;9744;49.364;7.484;2023-04-24T02:30:09;7.50;99.90
19220;DHT22;9744;49.364;7.484;2023-04-24T02:32:40;7.50;99.90
19220;DHT22;9744;49.364;7.484;2023-04-24T02:35:11;7.50;99.90
19220;DHT22;9744;49.364;7.484;2023-04-24T02:37:49;7.50;99.90
19220;DHT22;9744;49.364;7.484;2023-04-24T02:40:25;7.40;99.90
19220;DHT22;9744;49.364;7.484;2023-04-24T02:42:56;7.30;99.90
19220;DHT22;9744;49.364;7.484;2023-04-24T02:45:25;7.30;99.90
19220;DHT22;9744;49.364;7.484;2023-04-24T02:47:55;7.30;99.90
19220;DHT22;9744;49.364;7.484;2023-04-24T02:50:29;7.30;99.90
19220;DHT22;9744;49.364;7.484;2023-04-24T02:52:59;7.20;99.90
19220;DHT22;9744;49.364;7.484;2023-04-24T02:55:50;7.20;99.90
19220;DHT22;9744;49.364;7.484;2023-04-24T02:58:22;7.20;99.90
19220;DHT22;9744;49.364;7.484;2023-04-24T03:01:01;7.10;99.90
19220;DHT22;9744;49.364;7.484;2023-04-24T03:03:35;7.10;99.90
19220;DHT22;9744;49.364;7.484;2023-04-24T03:06:14;7.10;99.90
19220;DHT22;9744;49.364;7.484;2023-04-24T03:08:52;7.10;99.90
19220;DHT22;9744;49.364;7.484;2023-04-24T03:11:28;7.10;99.90
19220;DHT22;9744;49.364;7.484;2023-04-24T03:14:10;7.00;99.90
19220;DHT22;9744;49.364;7.484;2023-04-24T03:16:49;6.90;99.90
19220;DHT22;9744;49.364;7.484;2023-04-24T03:19:22;6.90;99.90
19220;DHT22;9744;49.364;7.484;2023-04-24T03:22:06;6.90;99.90
19220;DHT22;9744;49.364;7.484;2023-04-24T03:24:41;6.80;99.90
19220;DHT22;9744;49.364;7.484;2023-04-24T03:27:49;6.80;99.90
19220;DHT22;9744;49.364;7.484;2023-04-24T03:30:51;6.80;99.90
19220;DHT22;9744;49.364;7.484;2023-04-24T03:33:36;6.80;99.90
19220;DHT22;9744;49.364;7.484;2023-04-24T03:36:11;6.70;99.90
19220;DHT22;9744;49.364;7.484;2023-04-24T03:38:54;6.60;99.90
19220;DHT22;9744;49.364;7.484;2023-04-24T03:41:42;6.50;99.90
19220;DHT22;9744;49.364;7.484;2023-04-24T03:44:27;6.40;99.90
19220;DHT22;9744;49.364;7.484;2023-04-24T03:46:58;6.40;99.90
19220;DHT22;9744;49.364;7.484;2023-04-24T03:52:54;6.50;99.90
19220;DHT22;9744;49.364;7.484;2023-04-24T03:55:55;6.50;99.90
19220;DHT22;9744;49.364;7.484;2023-04-24T03:58:28;6.40;99.90
19220;DHT22;9744;49.364;7.484;2023-04-24T04:00:59;6.50;99.90
19220;DHT22;9744;49.364;7.484;2023-04-24T04:03:53;6.30;99.90
19220;DHT22;9744;49.364;7.484;2023-04-24T04:06:25;6.40;99.90
19220;DHT22;9744;49.364;7.484;2023-04-24T04:08:57;6.40;99.90
19220;DHT22;9744;49.364;7.484;2023-04-24T04:11:24;6.50;99.90
19220;DHT22;9744;49.364;7.484;2023-04-24T04:13:55;6.40;99.90
19220;DHT22;9744;49.364;7.484;2023-04-24T04:16:24;6.40;99.90
19220;DHT22;9744;49.364;7.484;2023-04-24T04:18:56;6.50;99.90
19220;DHT22;9744;49.364;7.484;2023-04-24T04:21:41;6.40;99.90
19220;DHT22;9744;49.364;7.484;2023-04-24T04:24:24;6.50;99.90
19220;DHT22;9744;49.364;7.484;2023-04-24T04:26:57;6.50;99.90
19220;DHT22;9744;49.364;7.484;2023-04-24T04:29:34;6.60;99.90
19220;DHT22;9744;49.364;7.484;2023-04-24T04:32:08;6.60;99.90
19220;DHT22;9744;49.364;7.484;2023-04-24T04:34:41;6.70;99.90
19220;DHT22;9744;49.364;7.484;2023-04-24T04:37:15;6.70;99.90
19220;DHT22;9744;49.364;7.484;2023-04-24T04:39:52;6.60;99.90
19220;DHT22;9744;49.364;7.484;2023-04-24T04:42:24;6.50;99.90
19220;DHT22;9744;49.364;7.484;2023-04-24T04:44:54;6.50;99.90
19220;DHT22;9744;49.364;7.484;2023-04-24T04:47:31;6.40;99.90
19220;DHT22;9744;49.364;7.484;2023-04-24T04:50:00;6.50;99.90
19220;DHT22;9744;49.364;7.484;2023-04-24T04:52:32;6.50;99.90
19220;DHT22;9744;49.364;7.484;2023-04-24T04:55:14;6.40;99.90
19220;DHT22;9744;49.364;7.484;2023-04-24T04:58:12;6.40;99.90
19220;DHT22;9744;49.364;7.484;2023-04-24T05:00:45;6.50;99.90
19220;DHT22;9744;49.364;7.484;2023-04-24T05:03:29;6.50;99.90
19220;DHT22;9744;49.364;7.484;2023-04-24T05:06:04;6.50;99.90
19220;DHT22;9744;49.364;7.484;2023-04-24T05:08:40;6.50;99.90
19220;DHT22;9744;49.364;7.484;2023-04-24T05:11:17;6.40;99.90
19220;DHT22;9744;49.364;7.484;2023-04-24T05:13:58;6.40;99.90
19220;DHT22;9744;49.364;7.484;2023-04-24T05:16:59;6.50;99.90
19220;DHT22;9744;49.364;7.484;2023-04-24T05:19:42;6.50;99.90
19220;DHT22;9744;49.364;7.484;2023-04-24T05:22:16;6.50;99.90
19220;DHT22;9744;49.364;7.484;2023-04-24T05:24:52;6.50;99.90
19220;DHT22;9744;49.364;7.484;2023-04-24T05:27:37;6.50;99.90
19220;DHT22;9744;49.364;7.484;2023-04-24T05:30:14;6.50;99.90
19220;DHT22;9744;49.364;7.484;2023-04-24T05:32:45;6.60;99.90
19220;DHT22;9744;49.364;7.484;2023-04-24T05:35:17;6.60;99.90
19220;DHT22;9744;49.364;7.484;2023-04-24T05:37:48;6.60;99.90
19220;DHT22;9744;49.364;7.484;2023-04-24T05:40:22;6.60;99.90
19220;DHT22;9744;49.364;7.484;2023-04-24T05:42:56;6.60;99.90
19220;DHT22;9744;49.364;7.484;2023-04-24T05:45:35;6.70;99.90
19220;DHT22;9744;49.364;7.484;2023-04-24T05:48:17;6.60;99.90
19220;DHT22;9744;49.364;7.484;2023-04-24T05:51:12;6.60;99.90
19220;DHT22;9744;49.364;7.484;2023-04-24T05:53:55;6.70;99.90
19220;DHT22;9744;49.364;7.484;2023-04-24T05:56:52;6.70;99.90
19220;DHT22;9744;49.364;7.484;2023-04-24T05:59:37;6.70;99.90
19220;DHT22;9744;49.364;7.484;2023-04-24T06:02:12;6.70;99.90
19220;DHT22;9744;49.364;7.484;2023-04-24T06:04:47;6.70;99.90
19220;DHT22;9744;49.364;7.484;2023-04-24T06:07:25;6.80;99.90
19220;DHT22;9744;49.364;7.484;2023-04-24T06:09:56;6.80;99.90
19220;DHT22;9744;49.364;7.484;2023-04-24T06:12:38;6.40;99.90
19220;DHT22;9744;49.364;7.484;2023-04-24T06:15:17;6.90;99.90
19220;DHT22;9744;49.364;7.484;2023-04-24T06:18:00;6.80;99.90
19220;DHT22;9744;49.364;7.484;2023-04-24T06:20:37;6.80;99.90
19220;DHT22;9744;49.364;7.484;2023-04-24T06:23:10;6.00;99.90
19220;DHT22;9744;49.364;7.484;2023-04-24T06:25:45;6.80;99.90
19220;DHT22;9744;49.364;7.484;2023-04-24T06:28:14;6.50;99.90
19220;DHT22;9744;49.364;7.484;2023-04-24T06:30:43;6.90;99.90
19220;DHT22;9744;49.364;7.484;2023-04-24T06:33:12;6.90;99.90
19220;DHT22;9744;49.364;7.484;2023-04-24T06:35:41;6.90;99.90
19220;DHT22;9744;49.364;7.484;2023-04-24T06:38:10;6.70;99.90
19220;DHT22;9744;49.364;7.484;2023-04-24T06:40:38;6.70;99.90
19220;DHT22;9744;49.364;7.484;2023-04-24T06:43:05;6.70;99.90
19220;DHT22;9744;49.364;7.484;2023-04-24T06:45:32;6.70;99.90
19220;DHT22;9744;49.364;7.484;2023-04-24T06:48:00;6.60;99.90
19220;DHT22;9744;49.364;7.484;2023-04-24T06:50:27;6.60;99.90
19220;DHT22;9744;49.364;7.484;2023-04-24T06:52:54;6.70;99.90
19220;DHT22;9744;49.364;7.484;2023-04-24T06:55:23;6.70;99.90
19220;DHT22;9744;49.364;7.484;2023-04-24T06:57:51;6.70;99.90
19220;DHT22;9744;49.364;7.484;2023-04-24T07:00:22;6.80;99.90
19220;DHT22;9744;49.364;7.484;2023-04-24T07:02:50;6.80;99.90
19220;DHT22;9744;49.364;7.484;2023-04-24T07:05:17;6.80;99.90
19220;DHT22;9744;49.364;7.484;2023-04-24T07:07:46;6.90;99.90
19220;DHT22;9744;49.364;7.484;2023-04-24T07:10:14;6.90;99.90
19220;DHT22;9744;49.364;7.484;2023-04-24T07:12:43;6.90;99.90
19220;DHT22;9744;49.364;7.484;2023-04-24T07:15:11;6.90;99.90
19220;DHT22;9744;49.364;7.484;2023-04-24T07:17:38;6.90;99.90
19220;DHT22;9744;49.364;7.484;2023-04-24T07:20:10;6.90;99.90
19220;DHT22;9744;49.364;7.484;2023-04-24T07:22:40;5.90;99.90
19220;DHT22;9744;49.364;7.484;2023-04-24T07:25:08;6.90;99.90
19220;DHT22;9744;49.364;7.484;2023-04-24T07:27:35;7.00;99.90
19220;DHT22;9744;49.364;7.484;2023-04-24T07:30:05;7.10;99.90
19220;DHT22;9744;49.364;7.484;2023-04-24T07:32:34;7.00;99.90
19220;DHT22;9744;49.364;7.484;2023-04-24T07:35:02;7.10;99.90
19220;DHT22;9744;49.364;7.484;2023-04-24T07:37:30;7.00;99.90
19220;DHT22;9744;49.364;7.484;2023-04-24T07:39:58;7.10;99.90
19220;DHT22;9744;49.364;7.484;2023-04-24T07:42:25;7.10;99.90
19220;DHT22;9744;49.364;7.484;2023-04-24T07:44:52;7.10;99.90
19220;DHT22;9744;49.364;7.484;2023-04-24T07:47:22;7.10;99.90
19220;DHT22;9744;49.364;7.484;2023-04-24T07:49:51;7.10;99.90
19220;DHT22;9744;49.364;7.484;2023-04-24T07:52:18;7.10;99.90
19220;DHT22;9744;49.364;7.484;2023-04-24T07:54:46;7.10;99.90
19220;DHT22;9744;49.364;7.484;2023-04-24T07:57:13;7.10;99.90
19220;DHT22;9744;49.364;7.484;2023-04-24T07:59:40;7.00;99.90
19220;DHT22;9744;49.364;7.484;2023-04-24T08:02:08;7.10;99.90
19220;DHT22;9744;49.364;7.484;2023-04-24T08:04:37;7.10;99.90
19220;DHT22;9744;49.364;7.484;2023-04-24T08:07:04;7.10;99.90
19220;DHT22;9744;49.364;7.484;2023-04-24T08:09:32;7.10;99.90
19220;DHT22;9744;49.364;7.484;2023-04-24T08:38:35;7.20;99.90
19220;DHT22;9744;49.364;7.484;2023-04-24T08:41:03;7.20;99.90
19220;DHT22;9744;49.364;7.484;2023-04-24T08:43:33;7.20;99.90
19220;DHT22;9744;49.364;7.484;2023-04-24T08:46:04;7.30;99.90
19220;DHT22;9744;49.364;7.484;2023-04-24T08:48:32;7.20;99.90
19220;DHT22;9744;49.364;7.484;2023-04-24T08:51:02;7.10;99.90
19220;DHT22;9744;49.364;7.484;2023-04-24T08:53:36;7.20;99.90
19220;DHT22;9744;49.364;7.484;2023-04-24T08:56:12;6.90;99.90
19220;DHT22;9744;49.364;7.484;2023-04-24T08:58:58;6.80;99.90
19220;DHT22;9744;49.364;7.484;2023-04-24T09:01:32;6.60;99.90
19220;DHT22;9744;49.364;7.484;2023-04-24T09:04:17;6.70;99.90
19220;DHT22;9744;49.364;7.484;2023-04-24T09:06:56;6.80;99.90
19220;DHT22;9744;49.364;7.484;2023-04-24T09:09:43;6.70;99.90
19220;DHT22;9744;49.364;7.484;2023-04-24T09:12:16;6.80;99.90
19220;DHT22;9744;49.364;7.484;2023-04-24T09:18:25;6.70;99.90
19220;DHT22;9744;49.364;7.484;2023-04-24T09:21:00;6.70;99.90
19220;DHT22;9744;49.364;7.484;2023-04-24T09:23:28;6.80;99.90
19220;DHT22;9744;49.364;7.484;2023-04-24T09:26:01;6.80;99.90
19220;DHT22;9744;49.364;7.484;2023-04-24T09:28:32;6.90;99.90
19220;DHT22;9744;49.364;7.484;2023-04-24T09:31:06;6.90;99.90
19220;DHT22;9744;49.364;7.484;2023-04-24T09:33:35;7.50;99.90
19220;DHT22;9744;49.364;7.484;2023-04-24T09:36:03;6.90;99.90
19220;DHT22;9744;49.364;7.484;2023-04-24T09:38:35;6.90;99.90
19220;DHT22;9744;49.364;7.484;2023-04-24T09:41:05;7.00;99.90
19220;DHT22;9744;49.364;7.484;2023-04-24T09:43:34;7.00;99.90
19220;DHT22;9744;49.364;7.484;2023-04-24T09:46:09;7.00;99.90
19220;DHT22;9744;49.364;7.484;2023-04-24T09:48:38;7.00;99.90
19220;DHT22;9744;49.364;7.484;2023-04-24T09:51:10;7.00;99.90
19220;DHT22;9744;49.364;7.484;2023-04-24T09:53:44;7.00;99.90
19220;DHT22;9744;49.364;7.484;2023-04-24T09:56:16;6.90;99.90
19220;DHT22;9744;49.364;7.484;2023-04-24T09:58:46;6.80;99.90
19220;DHT22;9744;49.364;7.484;2023-04-24T10:01:13;6.80;99.90
19220;DHT22;9744;49.364;7.484;2023-04-24T10:03:42;6.80;99.90
19220;DHT22;9744;49.364;7.484;2023-04-24T10:06:12;6.70;99.90
19220;DHT22;9744;49.364;7.484;2023-04-24T10:08:40;6.80;99.90
19220;DHT22;9744;49.364;7.484;2023-04-24T10:11:09;6.80;99.90
19220;DHT22;9744;49.364;7.484;2023-04-24T10:13:39;6.80;99.90
19220;DHT22;9744;49.364;7.484;2023-04-24T10:16:09;6.80;99.90
19220;DHT22;9744;49.364;7.484;2023-04-24T10:18:39;6.90;99.90
19220;DHT22;9744;49.364;7.484;2023-04-24T10:21:08;6.90;99.90
19220;DHT22;9744;49.364;7.484;2023-04-24T10:23:37;7.00;99.90
19220;DHT22;9744;49.364;7.484;2023-04-24T10:26:09;7.10;99.90
19220;DHT22;9744;49.364;7.484;2023-04-24T10:28:39;7.20;99.90
19220;DHT22;9744;49.364;7.484;2023-04-24T10:31:13;7.20;99.90
19220;DHT22;9744;49.364;7.484;2023-04-24T10:33:44;7.20;99.90
19220;DHT22;9744;49.364;7.484;2023-04-24T10:36:14;7.40;99.90
19220;DHT22;9744;49.364;7.484;2023-04-24T10:38:46;7.50;99.90
19220;DHT22;9744;49.364;7.484;2023-04-24T10:41:15;7.60;99.90
19220;DHT22;9744;49.364;7.484;2023-04-24T10:43:47;7.70;99.90
19220;DHT22;9744;49.364;7.484;2023-04-24T10:46:19;7.80;99.90
19220;DHT22;9744;49.364;7.484;2023-04-24T10:48:52;7.80;99.90
19220;DHT22;9744;49.364;7.484;2023-04-24T10:51:22;7.80;99.90
19220;DHT22;9744;49.364;7.484;2023-04-24T10:53:50;8.00;99.90
19220;DHT22;9744;49.364;7.484;2023-04-24T10:56:18;7.80;99.90
19220;DHT22;9744;49.364;7.484;2023-04-24T10:58:53;7.80;99.90
19220;DHT22;9744;49.364;7.484;2023-04-24T11:01:24;7.90;99.90
19220;DHT22;9744;49.364;7.484;2023-04-24T11:03:55;7.80;99.90
19220;DHT22;9744;49.364;7.484;2023-04-24T11:06:29;7.80;99.90
19220;DHT22;9744;49.364;7.484;2023-04-24T11:09:02;7.90;99.90
19220;DHT22;9744;49.364;7.484;2023-04-24T11:11:31;7.80;99.90
19220;DHT22;9744;49.364;7.484;2023-04-24T11:14:08;7.80;99.90
19220;DHT22;9744;49.364;7.484;2023-04-24T11:16:42;7.90;99.90
19220;DHT22;9744;49.364;7.484;2023-04-24T11:19:18;7.80;99.90
19220;DHT22;9744;49.364;7.484;2023-04-24T11:21:48;7.80;99.90
19220;DHT22;9744;49.364;7.484;2023-04-24T11:24:25;7.80;99.90
19220;DHT22;9744;49.364;7.484;2023-04-24T11:26:54;7.90;99.90
19220;DHT22;9744;49.364;7.484;2023-04-24T11:29:23;7.90;99.90
19220;DHT22;9744;49.364;7.484;2023-04-24T11:32:15;7.90;99.90
19220;DHT22;9744;49.364;7.484;2023-04-24T11:34:46;7.90;99.90
19220;DHT22;9744;49.364;7.484;2023-04-24T11:37:13;7.90;99.90
19220;DHT22;9744;49.364;7.484;2023-04-24T11:39:41;7.90;99.90
19220;DHT22;9744;49.364;7.484;2023-04-24T11:42:09;8.00;99.90
19220;DHT22;9744;49.364;7.484;2023-04-24T11:44:38;8.10;99.90
19220;DHT22;9744;49.364;7.484;2023-04-24T11:47:06;8.20;99.90
19220;DHT22;9744;49.364;7.484;2023-04-24T11:49:36;8.30;99.90
19220;DHT22;9744;49.364;7.484;2023-04-24T11:52:05;8.50;99.90
19220;DHT22;9744;49.364;7.484;2023-04-24T11:54:33;8.50;99.90
19220;DHT22;9744;49.364;7.484;2023-04-24T11:57:04;8.60;99.90
19220;DHT22;9744;49.364;7.484;2023-04-24T11:59:37;8.70;99.90
19220;DHT22;9744;49.364;7.484;2023-04-24T12:02:05;8.80;99.90
19220;DHT22;9744;49.364;7.484;2023-04-24T12:04:39;8.90;99.90
19220;DHT22;9744;49.364;7.484;2023-04-24T12:07:11;9.00;99.90
19220;DHT22;9744;49.364;7.484;2023-04-24T12:09:43;9.10;99.90
19220;DHT22;9744;49.364;7.484;2023-04-24T12:12:12;9.10;99.90
19220;DHT22;9744;49.364;7.484;2023-04-24T12:14:49;9.10;99.90
19220;DHT22;9744;49.364;7.484;2023-04-24T12:17:17;9.00;99.90
19220;DHT22;9744;49.364;7.484;2023-04-24T12:19:50;9.00;99.90
19220;DHT22;9744;49.364;7.484;2023-04-24T12:22:19;8.90;99.90
19220;DHT22;9744;49.364;7.484;2023-04-24T12:24:59;8.60;99.90
19220;DHT22;9744;49.364;7.484;2023-04-24T12:27:30;8.50;99.90
19220;DHT22;9744;49.364;7.484;2023-04-24T12:30:04;8.50;99.90
19220;DHT22;9744;49.364;7.484;2023-04-24T12:32:31;8.60;99.90
19220;DHT22;9744;49.364;7.484;2023-04-24T12:34:59;8.80;99.90
19220;DHT22;9744;49.364;7.484;2023-04-24T12:37:33;9.10;99.90
19220;DHT22;9744;49.364;7.484;2023-04-24T12:40:04;9.40;99.90
19220;DHT22;9744;49.364;7.484;2023-04-24T12:42:33;9.60;99.90
19220;DHT22;9744;49.364;7.484;2023-04-24T12:45:04;9.70;99.90
19220;DHT22;9744;49.364;7.484;2023-04-24T12:47:33;9.70;99.90
19220;DHT22;9744;49.364;7.484;2023-04-24T12:50:02;9.80;99.90
19220;DHT22;9744;49.364;7.484;2023-04-24T12:52:33;9.80;99.90
19220;DHT22;9744;49.364;7.484;2023-04-24T12:55:01;9.70;99.90
19220;DHT22;9744;49.364;7.484;2023-04-24T12:57:30;9.60;99.90
19220;DHT22;9744;49.364;7.484;2023-04-24T12:59:58;9.70;99.90
19220;DHT22;9744;49.364;7.484;2023-04-24T13:02:29;9.70;99.90
19220;DHT22;9744;49.364;7.484;2023-04-24T13:04:57;9.60;99.90
19220;DHT22;9744;49.364;7.484;2023-04-24T13:07:25;9.60;99.90
19220;DHT22;9744;49.364;7.484;2023-04-24T13:09:53;9.50;99.90
19220;DHT22;9744;49.364;7.484;2023-04-24T13:12:21;9.40;99.90
19220;DHT22;9744;49.364;7.484;2023-04-24T13:14:49;9.40;99.90
19220;DHT22;9744;49.364;7.484;2023-04-24T13:17:17;9.20;99.90
19220;DHT22;9744;49.364;7.484;2023-04-24T13:19:45;8.70;99.90
19220;DHT22;9744;49.364;7.484;2023-04-24T13:22:13;8.40;99.90
19220;DHT22;9744;49.364;7.484;2023-04-24T13:24:40;8.10;99.90
19220;DHT22;9744;49.364;7.484;2023-04-24T13:27:08;8.20;99.90
19220;DHT22;9744;49.364;7.484;2023-04-24T13:29:35;8.30;99.90
19220;DHT22;9744;49.364;7.484;2023-04-24T13:32:03;8.50;99.90
19220;DHT22;9744;49.364;7.484;2023-04-24T13:34:31;8.90;99.90
19220;DHT22;9744;49.364;7.484;2023-04-24T13:37:00;9.30;99.90
19220;DHT22;9744;49.364;7.484;2023-04-24T13:39:27;9.60;99.90
19220;DHT22;9744;49.364;7.484;2023-04-24T13:41:55;9.70;99.90
19220;DHT22;9744;49.364;7.484;2023-04-24T13:44:22;9.50;99.90
19220;DHT22;9744;49.364;7.484;2023-04-24T13:46:52;9.40;99.90
19220;DHT22;9744;49.364;7.484;2023-04-24T13:49:20;9.30;99.90
19220;DHT22;9744;49.364;7.484;2023-04-24T13:51:48;9.30;99.90
19220;DHT22;9744;49.364;7.484;2023-04-24T13:54:17;9.30;99.90
19220;DHT22;9744;49.364;7.484;2023-04-24T13:56:45;9.30;99.90
19220;DHT22;9744;49.364;7.484;2023-04-24T13:59:12;9.20;99.90
19220;DHT22;9744;49.364;7.484;2023-04-24T14:01:40;9.10;99.90
19220;DHT22;9744;49.364;7.484;2023-04-24T14:04:08;9.10;99.90
19220;DHT22;9744;49.364;7.484;2023-04-24T14:06:35;9.00;99.90
19220;DHT22;9744;49.364;7.484;2023-04-24T14:09:02;8.90;99.90
19220;DHT22;9744;49.364;7.484;2023-04-24T14:11:31;8.70;99.90
19220;DHT22;9744;49.364;7.484;2023-04-24T14:13:59;8.50;99.90
19220;DHT22;9744;49.364;7.484;2023-04-24T14:16:26;8.30;99.90
19220;DHT22;9744;49.364;7.484;2023-04-24T14:18:55;8.20;99.90
19220;DHT22;9744;49.364;7.484;2023-04-24T14:21:22;8.40;99.90
19220;DHT22;9744;49.364;7.484;2023-04-24T14:23:49;8.80;99.90
19220;DHT22;9744;49.364;7.484;2023-04-24T14:26:16;8.90;99.90
19220;DHT22;9744;49.364;7.484;2023-04-24T14:28:45;9.10;99.90
19220;DHT22;9744;49.364;7.484;2023-04-24T14:31:12;9.40;99.90
19220;DHT22;9744;49.364;7.484;2023-04-24T14:33:39;9.60;99.90
19220;DHT22;9744;49.364;7.484;2023-04-24T14:36:09;9.80;99.90
19220;DHT22;9744;49.364;7.484;2023-04-24T14:38:36;9.80;99.90
19220;DHT22;9744;49.364;7.484;2023-04-24T14:41:04;9.60;99.90
19220;DHT22;9744;49.364;7.484;2023-04-24T14:43:35;9.60;99.90
19220;DHT22;9744;49.364;7.484;2023-04-24T14:46:04;9.40;99.90
19220;DHT22;9744;49.364;7.484;2023-04-24T14:48:32;9.20;99.90
19220;DHT22;9744;49.364;7.484;2023-04-24T14:50:59;9.20;99.90
19220;DHT22;9744;49.364;7.484;2023-04-24T14:56:45;9.40;99.90
19220;DHT22;9744;49.364;7.484;2023-04-24T14:59:14;9.40;99.90
19220;DHT22;9744;49.364;7.484;2023-04-24T15:01:43;9.30;99.90
19220;DHT22;9744;49.364;7.484;2023-04-24T15:04:10;9.20;99.90
19220;DHT22;9744;49.364;7.484;2023-04-24T15:06:38;9.10;99.90
19220;DHT22;9744;49.364;7.484;2023-04-24T15:09:05;9.00;99.90
19220;DHT22;9744;49.364;7.484;2023-04-24T15:11:32;8.90;99.90
19220;DHT22;9744;49.364;7.484;2023-04-24T15:14:01;9.00;99.90
19220;DHT22;9744;49.364;7.484;2023-04-24T15:16:28;9.10;99.90
19220;DHT22;9744;49.364;7.484;2023-04-24T15:18:59;9.10;99.90
19220;DHT22;9744;49.364;7.484;2023-04-24T15:21:26;9.10;99.90
19220;DHT22;9744;49.364;7.484;2023-04-24T15:23:53;9.10;99.90
19220;DHT22;9744;49.364;7.484;2023-04-24T15:26:21;9.20;99.90
19220;DHT22;9744;49.364;7.484;2023-04-24T15:28:49;9.30;99.90
19220;DHT22;9744;49.364;7.484;2023-04-24T15:31:17;9.40;99.90
19220;DHT22;9744;49.364;7.484;2023-04-24T15:33:44;9.50;99.90
19220;DHT22;9744;49.364;7.484;2023-04-24T15:36:13;9.60;99.90
19220;DHT22;9744;49.364;7.484;2023-04-24T15:38:43;9.60;99.90
19220;DHT22;9744;49.364;7.484;2023-04-24T15:41:13;9.90;99.90
19220;DHT22;9744;49.364;7.484;2023-04-24T15:43:42;10.00;99.90
19220;DHT22;9744;49.364;7.484;2023-04-24T15:46:09;9.70;99.90
19220;DHT22;9744;49.364;7.484;2023-04-24T15:48:37;9.70;99.90
19220;DHT22;9744;49.364;7.484;2023-04-24T15:51:06;9.70;99.90
19220;DHT22;9744;49.364;7.484;2023-04-24T15:53:35;9.60;99.90
19220;DHT22;9744;49.364;7.484;2023-04-24T15:56:03;9.60;99.90
19220;DHT22;9744;49.364;7.484;2023-04-24T15:58:30;9.70;99.90
19220;DHT22;9744;49.364;7.484;2023-04-24T16:00:57;9.80;99.90
19220;DHT22;9744;49.364;7.484;2023-04-24T16:03:24;9.90;99.90
19220;DHT22;9744;49.364;7.484;2023-04-24T16:05:54;9.90;99.90
19220;DHT22;9744;49.364;7.484;2023-04-24T16:08:21;9.70;99.90
19220;DHT22;9744;49.364;7.484;2023-04-24T16:10:50;9.70;99.90
19220;DHT22;9744;49.364;7.484;2023-04-24T16:13:18;9.60;99.90
19220;DHT22;9744;49.364;7.484;2023-04-24T16:15:45;9.70;99.90
19220;DHT22;9744;49.364;7.484;2023-04-24T16:18:12;9.80;99.90
19220;DHT22;9744;49.364;7.484;2023-04-24T16:20:41;9.70;99.90
19220;DHT22;9744;49.364;7.484;2023-04-24T16:23:10;9.70;99.90
19220;DHT22;9744;49.364;7.484;2023-04-24T16:25:39;9.60;99.90
19220;DHT22;9744;49.364;7.484;2023-04-24T16:28:08;9.50;99.90
19220;DHT22;9744;49.364;7.484;2023-04-24T16:30:37;9.60;99.90
19220;DHT22;9744;49.364;7.484;2023-04-24T16:33:06;9.70;99.90
19220;DHT22;9744;49.364;7.484;2023-04-24T16:35:34;9.80;99.90
19220;DHT22;9744;49.364;7.484;2023-04-24T16:38:01;9.80;99.90
19220;DHT22;9744;49.364;7.484;2023-04-24T16:40:29;9.70;99.90
19220;DHT22;9744;49.364;7.484;2023-04-24T16:42:57;9.70;99.90
19220;DHT22;9744;49.364;7.484;2023-04-24T16:45:27;9.70;99.90
19220;DHT22;9744;49.364;7.484;2023-04-24T16:48:02;9.80;99.90
19220;DHT22;9744;49.364;7.484;2023-04-24T16:50:29;9.70;99.90
19220;DHT22;9744;49.364;7.484;2023-04-24T16:52:57;9.70;99.90
19220;DHT22;9744;49.364;7.484;2023-04-24T16:55:49;9.70;99.90
19220;DHT22;9744;49.364;7.484;2023-04-24T16:58:17;9.60;99.90
19220;DHT22;9744;49.364;7.484;2023-04-24T17:00:46;9.50;99.90
19220;DHT22;9744;49.364;7.484;2023-04-24T17:03:13;9.40;99.90
19220;DHT22;9744;49.364;7.484;2023-04-24T17:05:40;9.40;99.90
19220;DHT22;9744;49.364;7.484;2023-04-24T17:08:09;9.70;99.90
19220;DHT22;9744;49.364;7.484;2023-04-24T17:10:38;9.90;99.90